createdAt,value
2018-01-08T00:00:30.889Z,90.30
2018-01-08T00:02:59.993Z,90.00
2018-01-08T00:05:29.174Z,90.30
2018-01-08T00:07:57.525Z,90.00
2018-01-08T00:10:25.976Z,89.90
2018-01-08T00:12:54.301Z,90.00
2018-01-08T00:15:23.436Z,89.90
2018-01-08T00:17:51.777Z,89.90
2018-01-08T00:20:20.957Z,90.20
2018-01-08T00:22:49.313Z,89.80
2018-01-08T00:25:17.677Z,90.00
2018-01-08T00:27:46.043Z,90.10
2018-01-08T00:30:14.460Z,90.40
2018-01-08T00:32:42.823Z,90.10
2018-01-08T00:35:11.165Z,90.10
2018-01-08T00:37:39.508Z,90.10
2018-01-08T00:40:07.866Z,90.00
2018-01-08T00:42:36.203Z,90.10
2018-01-08T00:45:04.221Z,90.10
2018-01-08T00:47:32.576Z,90.10
2018-01-08T00:50:00.900Z,90.30
2018-01-08T00:52:29.232Z,90.30
2018-01-08T00:54:59.341Z,90.00
2018-01-08T00:57:28.361Z,90.00
2018-01-08T00:59:57.464Z,90.00
2018-01-08T01:02:27.037Z,90.00
2018-01-08T01:04:56.812Z,90.00
2018-01-08T01:07:25.172Z,90.30
2018-01-08T01:09:54.397Z,90.00
2018-01-08T01:12:22.741Z,90.00
2018-01-08T01:14:51.913Z,90.00
2018-01-08T01:17:20.256Z,90.00
2018-01-08T01:19:48.675Z,89.90
2018-01-08T01:22:17.793Z,90.40
2018-01-08T01:24:46.141Z,90.00
2018-01-08T01:27:14.505Z,90.10
2018-01-08T01:29:42.876Z,90.10
2018-01-08T01:32:11.252Z,90.10
2018-01-08T01:34:39.820Z,90.10
2018-01-08T01:37:08.161Z,90.10
2018-01-08T01:39:36.520Z,90.10
2018-01-08T01:42:05.615Z,90.10
2018-01-08T01:44:34.889Z,90.10
2018-01-08T01:47:03.225Z,90.10
2018-01-08T01:49:31.639Z,90.20
2018-01-08T01:51:59.992Z,90.20
2018-01-08T01:54:29.166Z,90.10
2018-01-08T01:56:57.215Z,90.10
2018-01-08T01:59:26.865Z,90.20
2018-01-08T02:01:55.210Z,90.20
2018-01-08T02:04:23.564Z,90.10
2018-01-08T02:06:52.659Z,90.10
2018-01-08T02:09:21.912Z,90.00
2018-01-08T02:11:50.267Z,90.00
2018-01-08T02:14:18.597Z,89.90
2018-01-08T02:16:46.957Z,90.00
2018-01-08T02:19:15.331Z,90.00
2018-01-08T02:21:43.734Z,90.10
2018-01-08T02:24:12.168Z,90.00
2018-01-08T02:26:40.514Z,90.30
2018-01-08T02:29:09.753Z,90.00
2018-01-08T02:31:38.100Z,90.00
2018-01-08T02:34:06.438Z,89.90
2018-01-08T02:36:34.788Z,89.80
2018-01-08T02:39:02.680Z,89.50
2018-01-08T02:41:31.028Z,89.90
2018-01-08T02:43:59.431Z,89.90
2018-01-08T02:46:28.625Z,89.60
2018-01-08T02:48:57.600Z,89.90
2018-01-08T02:51:26.146Z,89.70
2018-01-08T02:53:54.651Z,90.00
2018-01-08T02:56:23.009Z,89.90
2018-01-08T02:58:51.345Z,89.90
2018-01-08T03:01:20.473Z,90.00
2018-01-08T03:03:48.826Z,90.00
2018-01-08T03:06:17.928Z,90.00
2018-01-08T03:08:46.274Z,90.00
2018-01-08T03:11:14.597Z,89.90
2018-01-08T03:13:43.031Z,90.00
2018-01-08T03:16:11.371Z,89.80
2018-01-08T03:18:39.716Z,89.70
2018-01-08T03:21:08.066Z,89.70
2018-01-08T03:23:37.227Z,89.90
2018-01-08T03:26:06.356Z,89.80
2018-01-08T03:28:35.528Z,90.00
2018-01-08T03:31:03.894Z,90.00
2018-01-08T03:33:32.311Z,89.90
2018-01-08T03:36:01.411Z,89.90
2018-01-08T03:38:30.584Z,89.90
2018-01-08T03:40:58.924Z,89.80
2018-01-08T03:43:27.996Z,90.00
2018-01-08T03:45:56.917Z,90.00
2018-01-08T03:48:26.113Z,90.00
2018-01-08T03:50:54.452Z,89.90
2018-01-08T03:53:22.870Z,90.00
2018-01-08T03:55:51.281Z,89.80
2018-01-08T03:58:19.675Z,89.90
2018-01-08T04:00:48.779Z,89.90
2018-01-08T04:03:17.221Z,89.90
2018-01-08T04:05:45.566Z,89.90
2018-01-08T04:08:14.078Z,89.80
2018-01-08T04:10:42.410Z,89.60
2018-01-08T04:13:10.823Z,89.70
2018-01-08T04:15:39.181Z,90.00
2018-01-08T04:18:07.527Z,89.90
2018-01-08T04:20:35.874Z,89.80
2018-01-08T04:23:04.990Z,89.70
2018-01-08T04:25:33.323Z,89.70
2018-01-08T04:28:01.779Z,89.90
2018-01-08T04:30:30.124Z,90.00
2018-01-08T04:32:58.901Z,90.00
2018-01-08T04:35:29.001Z,90.00
2018-01-08T04:37:58.046Z,90.00
2018-01-08T04:40:27.204Z,90.00
2018-01-08T04:42:56.845Z,90.00
2018-01-08T04:45:25.198Z,90.00
2018-01-08T04:47:53.542Z,90.00
2018-01-08T04:50:21.904Z,90.00
2018-01-08T04:52:51.163Z,90.10
2018-01-08T04:55:19.506Z,90.10
2018-01-08T04:57:48.616Z,90.00
2018-01-08T05:00:17.723Z,90.00
2018-01-08T05:02:46.192Z,89.80
2018-01-08T05:05:14.549Z,90.00
2018-01-08T05:07:43.652Z,90.10
2018-01-08T05:10:12.763Z,90.00
2018-01-08T05:12:41.176Z,90.00
2018-01-08T05:15:09.517Z,90.00
2018-01-08T05:17:37.966Z,90.00
2018-01-08T05:20:06.317Z,90.00
2018-01-08T05:22:35.617Z,90.00
2018-01-08T05:25:03.965Z,90.00
2018-01-08T05:27:32.400Z,90.00
2018-01-08T05:30:00.750Z,90.00
2018-01-08T05:32:30.064Z,90.10
2018-01-08T05:34:58.410Z,90.00
2018-01-08T05:37:26.864Z,90.10
2018-01-08T05:39:55.200Z,90.00
2018-01-08T05:42:24.577Z,90.00
2018-01-08T05:44:52.931Z,89.70
2018-01-08T05:47:21.324Z,89.80
2018-01-08T05:49:49.658Z,89.70
2018-01-08T05:52:18.055Z,89.60
2018-01-08T05:54:46.404Z,89.60
2018-01-08T05:57:15.648Z,89.80
2018-01-08T05:59:44.004Z,89.80
2018-01-08T06:02:13.550Z,89.80
2018-01-08T06:04:41.900Z,90.00
2018-01-08T06:07:10.421Z,90.00
2018-01-08T06:09:38.746Z,90.10
2018-01-08T06:12:07.075Z,90.00
2018-01-08T06:14:35.428Z,89.90
2018-01-08T06:17:03.884Z,90.20
2018-01-08T06:19:32.225Z,89.70
2018-01-08T06:22:01.392Z,90.00
2018-01-08T06:24:29.749Z,90.00
2018-01-08T06:26:58.340Z,89.90
2018-01-08T06:29:27.029Z,90.00
2018-01-08T06:31:55.402Z,90.00
2018-01-08T06:34:23.742Z,90.00
2018-01-08T06:36:52.130Z,89.90
2018-01-08T06:39:20.484Z,90.00
2018-01-08T06:41:48.858Z,89.80
2018-01-08T06:44:17.220Z,89.70
2018-01-08T06:46:46.392Z,89.70
2018-01-08T06:49:14.734Z,89.70
2018-01-08T06:51:43.151Z,89.90
2018-01-08T06:54:11.496Z,89.90
2018-01-08T06:56:39.921Z,89.90
2018-01-08T06:59:08.251Z,90.00
2018-01-08T07:01:36.708Z,90.10
2018-01-08T07:04:05.035Z,90.00
2018-01-08T07:06:33.410Z,90.00
2018-01-08T07:09:01.785Z,90.10
2018-01-08T07:11:30.166Z,90.10
2018-01-08T07:13:58.332Z,90.10
2018-01-08T07:16:27.088Z,90.20
2018-01-08T07:18:55.796Z,90.10
2018-01-08T07:21:23.926Z,90.10
2018-01-08T07:23:52.266Z,90.20
2018-01-08T07:26:20.621Z,90.10
2018-01-08T07:28:49.750Z,90.10
2018-01-08T07:31:18.881Z,90.10
2018-01-08T07:33:47.211Z,90.10
2018-01-08T07:36:15.578Z,90.10
2018-01-08T07:38:43.946Z,90.10
2018-01-08T07:41:12.346Z,90.10
2018-01-08T07:43:40.679Z,90.10
2018-01-08T07:46:09.075Z,90.40
2018-01-08T07:48:37.436Z,90.10
2018-01-08T07:51:05.838Z,90.10
2018-01-08T07:53:34.174Z,90.10
2018-01-08T07:56:02.535Z,90.10
2018-01-08T07:58:30.858Z,90.10
2018-01-08T08:00:59.316Z,90.10
2018-01-08T08:03:27.682Z,90.10
2018-01-08T08:05:56.235Z,90.10
2018-01-08T08:08:25.359Z,90.10
2018-01-08T08:10:53.705Z,90.10
2018-01-08T08:13:22.813Z,90.00
2018-01-08T08:15:51.245Z,90.00
2018-01-08T08:18:19.592Z,90.00
2018-01-08T08:20:47.995Z,90.00
2018-01-08T08:23:16.350Z,90.00
2018-01-08T08:25:44.693Z,90.00
2018-01-08T08:28:13.807Z,89.90
2018-01-08T08:30:42.237Z,89.90
2018-01-08T08:33:10.600Z,89.80
2018-01-08T08:35:39.152Z,90.00
2018-01-08T08:38:07.496Z,90.00
2018-01-08T08:40:36.610Z,90.00
2018-01-08T08:43:04.986Z,90.00
2018-01-08T08:45:33.313Z,90.00
2018-01-08T08:48:01.760Z,90.00
2018-01-08T08:50:30.119Z,89.90
2018-01-08T08:52:58.479Z,89.90
2018-01-08T08:55:28.441Z,90.00
2018-01-08T08:57:57.706Z,90.00
2018-01-08T09:00:26.492Z,90.10
2018-01-08T09:02:55.083Z,90.00
2018-01-08T09:05:23.449Z,90.00
2018-01-08T09:07:51.783Z,90.10
2018-01-08T09:10:20.130Z,89.80
2018-01-08T09:12:48.590Z,89.60
2018-01-08T09:15:16.945Z,89.60
2018-01-08T09:17:46.062Z,89.50
2018-01-08T09:20:14.397Z,89.50
2018-01-08T09:22:42.856Z,89.30
2018-01-08T09:25:11.199Z,89.40
2018-01-08T09:27:39.547Z,89.70
2018-01-08T09:30:08.654Z,89.70
2018-01-08T09:32:37.038Z,89.70
2018-01-08T09:35:05.406Z,90.00
2018-01-08T09:37:34.577Z,89.90
2018-01-08T09:40:02.906Z,89.90
2018-01-08T09:42:32.332Z,90.00
2018-01-08T09:45:00.810Z,90.00
2018-01-08T09:47:29.156Z,90.00
2018-01-08T09:49:58.128Z,90.00
2018-01-08T09:52:27.763Z,90.00
2018-01-08T09:54:55.770Z,90.00
2018-01-08T09:57:24.134Z,90.50
2018-01-08T09:59:52.533Z,90.20
2018-01-08T10:02:19.737Z,90.20
2018-01-08T10:04:59.200Z,90.20
2018-01-08T10:07:38.853Z,90.30
2018-01-08T10:10:18.435Z,90.30
2018-01-08T10:12:57.958Z,90.30
2018-01-08T10:15:37.794Z,90.30
2018-01-08T10:18:17.610Z,90.20
2018-01-08T10:20:45.960Z,90.10
2018-01-08T10:23:14.371Z,90.20
2018-01-08T10:25:42.716Z,90.50
2018-01-08T10:28:11.171Z,90.20
2018-01-08T10:30:39.180Z,90.20
2018-01-08T10:33:07.204Z,90.10
2018-01-08T10:35:35.985Z,90.00
2018-01-08T10:38:04.824Z,90.10
2018-01-08T10:40:33.185Z,90.00
2018-01-08T10:43:07.155Z,90.10
2018-01-08T10:45:41.736Z,90.00
2018-01-08T10:48:16.385Z,90.20
2018-01-08T10:50:50.816Z,90.10
2018-01-08T10:53:29.795Z,90.10
2018-01-08T10:55:58.645Z,90.00
2018-01-08T10:58:28.286Z,89.90
2018-01-08T11:01:02.088Z,89.90
2018-01-08T11:03:36.524Z,90.00
2018-01-08T11:06:05.770Z,90.00
2018-01-08T11:08:34.945Z,90.00
2018-01-08T11:11:03.144Z,89.90
2018-01-08T11:13:32.299Z,89.60
2018-01-08T11:16:00.812Z,89.50
2018-01-08T11:18:29.927Z,89.80
2018-01-08T11:20:59.198Z,89.70
2018-01-08T11:23:27.830Z,89.60
2018-01-08T11:25:56.603Z,89.60
2018-01-08T11:28:24.941Z,89.50
2018-01-08T11:30:53.317Z,89.70
2018-01-08T11:33:21.409Z,89.50
2018-01-08T11:35:49.862Z,89.50
2018-01-08T11:38:17.584Z,89.50
2018-01-08T11:40:45.260Z,89.70
2018-01-08T11:43:12.989Z,89.70
2018-01-08T11:45:40.697Z,89.60
2018-01-08T11:48:08.489Z,89.70
2018-01-08T11:50:36.934Z,90.10
2018-01-08T11:53:04.689Z,89.50
2018-01-08T11:55:32.368Z,89.40
2018-01-08T11:58:00.126Z,89.40
2018-01-08T12:00:28.540Z,89.50
2018-01-08T12:02:57.981Z,89.50
2018-01-08T12:05:25.652Z,89.40
2018-01-08T12:07:54.150Z,89.40
2018-01-08T12:10:21.873Z,89.40
2018-01-08T12:12:49.634Z,89.50
2018-01-08T12:15:17.323Z,89.40
2018-01-08T12:17:45.029Z,89.30
2018-01-08T12:20:14.179Z,89.50
2018-01-08T12:22:43.441Z,89.30
2018-01-08T12:25:12.544Z,89.40
2018-01-08T12:27:40.572Z,90.00
2018-01-08T12:30:08.770Z,89.30
2018-01-08T12:32:37.616Z,89.50
2018-01-08T12:35:05.978Z,89.50
2018-01-08T12:37:34.358Z,89.80
2018-01-08T12:40:02.781Z,89.60
2018-01-08T12:42:31.881Z,89.30
2018-01-08T12:45:00.643Z,89.20
2018-01-08T12:47:29.916Z,89.20
2018-01-08T12:49:58.003Z,89.10
2018-01-08T12:52:26.501Z,89.30
2018-01-08T12:54:54.541Z,89.00
2018-01-08T12:57:22.556Z,88.90
2018-01-08T12:59:51.692Z,88.70
2018-01-08T13:02:19.734Z,88.60
2018-01-08T13:04:48.308Z,88.60
2018-01-08T13:07:16.128Z,88.60
2018-01-08T13:09:44.617Z,88.50
2018-01-08T13:12:12.955Z,88.10
2018-01-08T13:14:41.315Z,88.00
2018-01-08T13:17:09.915Z,88.80
2018-01-08T13:19:38.309Z,88.10
2018-01-08T13:22:06.330Z,88.20
2018-01-08T13:24:35.472Z,88.10
2018-01-08T13:27:03.506Z,88.10
2018-01-08T13:29:32.676Z,88.20
2018-01-08T13:32:00.687Z,88.10
2018-01-08T13:34:28.994Z,88.30
2018-01-08T13:36:57.331Z,88.00
2018-01-08T13:39:25.678Z,88.10
2018-01-08T13:41:53.365Z,88.00
2018-01-08T13:44:22.533Z,88.10
2018-01-08T13:46:50.235Z,88.20
2018-01-08T13:49:17.910Z,88.10
2018-01-08T13:51:45.588Z,88.10
2018-01-08T13:54:13.333Z,88.00
2018-01-08T13:56:41.046Z,88.00
2018-01-08T13:59:09.495Z,87.80
2018-01-08T14:01:37.180Z,87.80
2018-01-08T14:04:04.733Z,88.60
2018-01-08T14:06:32.411Z,87.90
2018-01-08T14:09:00.928Z,88.00
2018-01-08T14:11:28.712Z,88.00
2018-01-08T14:13:57.967Z,87.90
2018-01-08T14:16:27.757Z,87.80
2018-01-08T14:18:56.588Z,87.80
2018-01-08T14:21:24.920Z,88.50
2018-01-08T14:23:53.397Z,87.70
2018-01-08T14:26:21.732Z,88.70
2018-01-08T14:28:50.145Z,87.90
2018-01-08T14:31:18.489Z,87.90
2018-01-08T14:33:46.567Z,88.20
2018-01-08T14:36:14.931Z,88.10
2018-01-08T14:38:43.280Z,88.00
2018-01-08T14:41:12.395Z,88.00
2018-01-08T14:43:40.768Z,88.00
2018-01-08T14:46:09.150Z,88.10
2018-01-08T14:48:37.642Z,87.90
2018-01-08T14:51:05.670Z,87.90
2018-01-08T14:53:34.537Z,87.90
2018-01-08T14:56:02.878Z,87.90
2018-01-08T14:58:30.890Z,87.90
2018-01-08T15:00:59.148Z,87.90
2018-01-08T15:03:27.516Z,88.00
2018-01-08T15:05:55.866Z,88.00
2018-01-08T15:08:24.309Z,87.90
2018-01-08T15:10:52.745Z,87.90
2018-01-08T15:13:20.799Z,87.90
2018-01-08T15:15:48.516Z,88.10
2018-01-08T15:18:16.662Z,88.10
2018-01-08T15:20:45.180Z,87.80
2018-01-08T15:23:13.697Z,88.10
2018-01-08T15:25:41.718Z,88.00
2018-01-08T15:28:10.934Z,88.70
2018-01-08T15:30:40.042Z,88.10
2018-01-08T15:33:08.395Z,88.00
2018-01-08T15:35:37.515Z,88.00
2018-01-08T15:38:05.747Z,88.00
2018-01-08T15:40:34.114Z,88.00
2018-01-08T15:43:02.521Z,88.10
2018-01-08T15:45:31.631Z,88.10
2018-01-08T15:48:00.130Z,88.10
2018-01-08T15:50:29.342Z,88.20
2018-01-08T15:52:57.701Z,88.30
2018-01-08T15:55:26.030Z,88.40
2018-01-08T15:57:54.479Z,88.40
2018-01-08T16:00:22.822Z,88.30
2018-01-08T16:02:51.166Z,88.40
2018-01-08T16:05:19.507Z,88.40
2018-01-08T16:07:47.944Z,88.30
2018-01-08T16:10:17.046Z,88.50
2018-01-08T16:12:45.511Z,88.40
2018-01-08T16:15:14.616Z,88.50
2018-01-08T16:17:43.896Z,88.50
2018-01-08T16:20:13.016Z,88.40
2018-01-08T16:22:41.455Z,88.40
2018-01-08T16:25:09.819Z,88.50
2018-01-08T16:27:38.238Z,88.60
2018-01-08T16:30:06.783Z,88.70
2018-01-08T16:32:35.172Z,88.70
2018-01-08T16:35:03.522Z,88.80
2018-01-08T16:37:31.874Z,88.80
2018-01-08T16:40:00.231Z,88.80
2018-01-08T16:42:29.567Z,88.80
2018-01-08T16:44:58.280Z,88.80
2018-01-08T16:47:27.542Z,89.00
2018-01-08T16:49:55.897Z,88.90
2018-01-08T16:52:24.314Z,89.00
2018-01-08T16:54:52.678Z,89.10
2018-01-08T16:57:21.120Z,89.10
2018-01-08T16:59:50.214Z,89.10
2018-01-08T17:02:19.439Z,89.00
2018-01-08T17:04:47.798Z,88.90
2018-01-08T17:07:16.969Z,88.90
2018-01-08T17:09:45.308Z,88.90
2018-01-08T17:12:13.706Z,89.10
2018-01-08T17:14:42.060Z,89.00
2018-01-08T17:17:10.469Z,89.10
2018-01-08T17:19:38.828Z,89.20
2018-01-08T17:22:07.231Z,89.20
2018-01-08T17:24:35.574Z,89.20
2018-01-08T17:27:03.987Z,89.90
2018-01-08T17:29:32.341Z,89.30
2018-01-08T17:32:00.830Z,89.20
2018-01-08T17:34:30.013Z,89.20
2018-01-08T17:36:59.122Z,89.20
2018-01-08T17:39:27.941Z,89.20
2018-01-08T17:41:57.532Z,89.30
2018-01-08T17:44:25.901Z,89.30
2018-01-08T17:46:54.343Z,89.30
2018-01-08T17:49:22.679Z,89.30
2018-01-08T17:51:53.519Z,90.00
2018-01-08T17:54:22.619Z,89.30
2018-01-08T17:56:51.580Z,89.30
2018-01-08T17:59:19.930Z,89.30
2018-01-08T18:01:48.359Z,89.40
2018-01-08T18:04:17.440Z,89.70
2018-01-08T18:06:45.873Z,89.40
2018-01-08T18:09:14.225Z,89.50
2018-01-08T18:11:43.343Z,89.40
2018-01-08T18:14:11.711Z,89.40
2018-01-08T18:16:40.121Z,89.40
2018-01-08T18:19:08.464Z,89.40
2018-01-08T18:21:37.041Z,89.40
2018-01-08T18:24:05.377Z,89.40
2018-01-08T18:26:33.767Z,89.40
2018-01-08T18:29:02.145Z,89.30
2018-01-08T18:31:30.547Z,89.20
2018-01-08T18:33:58.889Z,89.20
2018-01-08T18:36:28.512Z,89.10
2018-01-08T18:38:57.454Z,89.30
2018-01-08T18:41:25.881Z,89.20
2018-01-08T18:43:54.351Z,89.00
2018-01-08T18:46:22.729Z,89.00
2018-01-08T18:48:51.173Z,89.10
2018-01-08T18:51:19.673Z,88.90
2018-01-08T18:53:48.037Z,88.90
2018-01-08T18:56:16.580Z,89.00
2018-01-08T18:58:45.728Z,89.00
2018-01-08T19:01:14.104Z,89.00
2018-01-08T19:03:42.266Z,89.20
2018-01-08T19:06:10.710Z,89.10
2018-01-08T19:08:39.887Z,88.90
2018-01-08T19:11:09.141Z,89.20
2018-01-08T19:13:37.547Z,88.90
2018-01-08T19:16:05.981Z,88.90
2018-01-08T19:18:34.501Z,89.00
2018-01-08T19:21:03.454Z,89.00
2018-01-08T19:23:32.068Z,89.00
2018-01-08T19:26:01.414Z,89.00
2018-01-08T19:28:30.576Z,89.10
2018-01-08T19:30:59.064Z,89.10
2018-01-08T19:33:28.263Z,89.10
2018-01-08T19:35:56.796Z,89.10
2018-01-08T19:38:25.325Z,89.10
2018-01-08T19:40:54.284Z,89.20
2018-01-08T19:43:22.764Z,89.20
2018-01-08T19:45:51.211Z,89.20
2018-01-08T19:48:19.632Z,89.40
2018-01-08T19:50:49.050Z,89.30
2018-01-08T19:53:17.485Z,89.30
2018-01-08T19:55:46.053Z,89.20
2018-01-08T19:58:14.557Z,89.10
2018-01-08T20:00:43.420Z,89.10
2018-01-08T20:03:11.911Z,89.10
2018-01-08T20:05:40.464Z,89.20
2018-01-08T20:08:09.852Z,89.10
2018-01-08T20:10:38.313Z,89.10
2018-01-08T20:13:06.861Z,89.30
2018-01-08T20:15:35.478Z,89.20
2018-01-08T20:18:04.704Z,89.40
2018-01-08T20:20:33.956Z,89.50
2018-01-08T20:23:02.569Z,89.40
2018-01-08T20:25:31.067Z,89.50
2018-01-08T20:27:59.757Z,89.30
2018-01-08T20:30:28.522Z,90.00
2018-01-08T20:32:57.779Z,89.40
2018-01-08T20:35:26.224Z,89.40
2018-01-08T20:37:55.416Z,89.60
2018-01-08T20:40:24.652Z,89.70
2018-01-08T20:42:53.251Z,89.70
2018-01-08T20:45:22.083Z,89.70
2018-01-08T20:47:50.563Z,89.70
2018-01-08T20:50:19.849Z,89.90
2018-01-08T20:52:48.475Z,89.70
2018-01-08T20:55:17.426Z,89.80
2018-01-08T20:57:45.888Z,89.70
2018-01-08T21:00:14.229Z,89.70
2018-01-08T21:02:42.807Z,89.80
2018-01-08T21:05:11.427Z,89.80
2018-01-08T21:07:39.840Z,90.00
2018-01-08T21:10:08.435Z,89.80
2018-01-08T21:12:37.619Z,89.90
2018-01-08T21:15:06.020Z,89.80
2018-01-08T21:17:35.130Z,89.90
2018-01-08T21:20:03.270Z,89.80
2018-01-08T21:22:32.378Z,90.20
2018-01-08T21:25:01.575Z,90.00
2018-01-08T21:27:30.703Z,89.90
2018-01-08T21:29:59.600Z,89.90
2018-01-08T21:32:27.743Z,89.90
2018-01-08T21:34:56.099Z,90.00
2018-01-08T21:37:24.594Z,90.00
2018-01-08T21:39:53.767Z,90.10
2018-01-08T21:42:22.133Z,90.10
2018-01-08T21:44:50.641Z,90.00
2018-01-08T21:47:19.759Z,90.10
2018-01-08T21:49:48.111Z,90.10
2018-01-08T21:52:17.225Z,90.20
2018-01-08T21:54:45.602Z,90.10
2018-01-08T21:57:13.930Z,90.10
2018-01-08T21:59:42.422Z,90.20
2018-01-08T22:02:10.464Z,90.10
2018-01-08T22:04:40.524Z,90.20
2018-01-08T22:07:08.870Z,90.10
2018-01-08T22:09:37.217Z,90.10
2018-01-08T22:12:05.568Z,90.20
2018-01-08T22:14:34.766Z,90.10
2018-01-08T22:17:03.890Z,90.10
2018-01-08T22:19:32.244Z,90.10
2018-01-08T22:22:01.339Z,90.00
2018-01-08T22:24:30.591Z,90.10
2018-01-08T22:26:59.409Z,90.10
2018-01-08T22:29:28.417Z,90.20
2018-01-08T22:31:57.544Z,90.10
2018-01-08T22:34:25.987Z,90.10
2018-01-08T22:36:55.103Z,90.10
2018-01-08T22:39:23.444Z,90.10
2018-01-08T22:41:51.792Z,90.10
2018-01-08T22:44:20.208Z,90.10
2018-01-08T22:46:49.324Z,90.10
2018-01-08T22:49:17.689Z,90.10
2018-01-08T22:51:46.813Z,90.10
2018-01-08T22:54:15.151Z,90.10
2018-01-08T22:56:44.278Z,90.20
2018-01-08T22:59:12.630Z,90.00
2018-01-08T23:01:41.735Z,90.00
2018-01-08T23:04:10.928Z,90.00
2018-01-08T23:06:40.027Z,90.00
2018-01-08T23:09:09.163Z,90.00
2018-01-08T23:11:37.529Z,90.00
2018-01-08T23:14:05.957Z,90.00
2018-01-08T23:16:34.305Z,90.00
2018-01-08T23:19:02.669Z,90.00
2018-01-08T23:21:31.035Z,90.00
2018-01-08T23:23:59.776Z,90.40
2018-01-08T23:26:29.212Z,90.00
2018-01-08T23:28:59.853Z,90.10
2018-01-08T23:31:29.153Z,90.10
2018-01-08T23:33:57.888Z,90.00
2018-01-08T23:36:26.240Z,90.10
2018-01-08T23:38:55.356Z,90.00
2018-01-08T23:41:23.679Z,90.00
2018-01-08T23:43:52.040Z,90.00
2018-01-08T23:46:21.166Z,90.00
2018-01-08T23:48:49.594Z,90.00
2018-01-08T23:51:17.953Z,89.80
2018-01-08T23:53:46.340Z,89.90
2018-01-08T23:56:14.681Z,89.90
2018-01-08T23:58:43.099Z,89.80
